75.9°F
Current conditions from King Hill
Updated every 5 minutes
 
  Friday July 29, 2016

Observations for Westford

Westford

44° 37' 39"N, 73° 02' 29"W, Elevation 850 ft.
Eastern Time

Hourly observations for the last 72 hours

Date Time Temperature (F) Humi-
dity

(%)
Wind
(mph)
Pressure Rain (in) Sun
(W/m2)
UV ET
(in)
Air Dew 6 Hour 1 Hr 3 Hr 6 Hr Day
Alt
(in)
Sea
Level

(mb)
Max Min
24 15:00 76.9 48.7 37 WNW 0 G 2 30.05 1017.7 0.00 782 0.0 0.129
24 14:00 74.8 47.5 74.8 57.8 38 NW 0 G 8 30.05 1017.8 0.00 863 0.0 0.109
24 13:00 73.3 53.0 49 WNW 0 G 8 30.05 1017.8 0.00 889 0.0 0.087
24 12:00 71.8 53.2 52 WNW 0 G 1 30.06 1017.9 0.00 861 0.0 0.065
24 11:00 71.2 54.2 55 NW 0 G 7 30.05 1017.5 0.00 789 0.0 0.045
24 10:00 69.3 55.3 61 W 0 G 1 30.04 1017.4 0.00 687 0.0 0.028
24 09:00 66.3 55.8 69 Calm 30.04 1017.2 0.00 548 0.0 0.014
24 08:00 57.8 56.1 57.8 45.4 94 Calm 30.02 1016.8 0.00 381 0.0 0.004
24 07:00 49.7 48.9 97 Calm 30.00 1016.0 0.00 42 0.0 0.001
24 06:00 46.2 45.1 96 Calm 29.98 1015.1 0.00 25 0.0 0.000
24 05:00 45.7 44.6 96 Calm 29.95 1014.4 0.00 0 0.0 0.000
24 04:00 46.5 45.4 96 Calm 29.93 1013.6 0.00 0 0.0 0.000
24 03:00 47.7 46.3 95 Calm 29.92 1013.1 0.00 0 0.0 0.000
24 02:00 48.2 46.3 65.4 48.2 93 Calm 29.91 1013.0 0.00 0 0.0 0.000
24 01:00 49.2 47.0 92 Calm 29.90 1012.6 0.00 0 0.0 0.000
24 00:00 51.0 47.3 87 Calm 29.89 1012.3 0.01 0 0.0 0.000
23 23:00 51.6 48.2 88 Calm 29.88 1012.0 0.01 0 0.0 0.171
23 22:00 53.6 49.5 86 Calm 29.87 1011.7 0.01 0 0.0 0.171
23 21:00 56.6 50.8 81 Calm 29.85 1011.0 0.01 0 0.0 0.171
23 20:00 65.4 53.3 75.1 65.4 65 Calm 29.83 1010.2 0.01 28 0.0 0.171
23 19:00 69.8 54.4 58 Calm 29.82 1009.8 0.01 111 0.0 0.169
23 18:00 72.2 54.7 54 WNW 0 G 4 29.81 1009.5 0.01 376 0.0 0.165
23 17:00 74.0 54.7 51 WNW 3 G 10 29.81 1009.5 0.01 538 0.0 0.154
23 16:00 74.2 53.8 49 NNW 0 G 10 29.80 1009.2 0.01 686 0.0 0.138
23 15:00 74.4 56.2 53 NW 2 G 11 29.80 1009.2 0.01 844 0.0 0.120
23 14:00 73.0 56.9 73.3 59.9 57 W 4 G 11 29.80 1009.3 0.01 921 0.0 0.098
23 13:00 71.3 54.3 55 NNW 0 G 8 29.81 1009.4 0.01 1123 0.0 0.083
23 12:00 70.7 54.7 57 SW 0 G 9 29.82 1010.0 0.01 991 0.0 0.066
23 11:00 68.5 52.7 57 WNW 0 G 9 29.82 1009.9 0.01 803 0.0 0.047
23 10:00 66.9 53.0 61 SSW 3 G 10 29.84 1010.5 0.01 705 0.0 0.028
23 09:00 64.4 56.3 75 SSW 0 G 8 29.84 1010.6 0.01 563 0.0 0.014
23 08:00 59.9 55.1 59.9 50.5 84 W 0 G 10 29.84 1010.7 0.01 0.01 0.01 385 0.0 0.004
23 07:00 53.0 51.3 94 Calm 29.84 1010.5 0.01 35 0.0 0.001
23 06:00 52.5 51.1 95 Calm 29.83 1010.3 0.01 0.01 23 0.0 0.000
23 05:00 52.8 51.1 94 Calm 29.83 1010.3 0.00 0 0.0 0.000
23 04:00 53.1 51.1 93 Calm 29.83 1010.3 0.00 0 0.0 0.000
23 03:00 52.6 51.2 95 SSW 0 G 2 29.83 1010.2 0.00 0 0.0 0.000
23 02:00 51.1 49.4 60.0 51.1 94 Calm 29.82 1010.0 0.00 0 0.0 0.000
23 01:00 51.4 49.4 93 Calm 29.83 1010.0 0.00 0 0.0 0.000
23 00:00 53.6 51.0 91 Calm 29.83 1010.2 0.55 0 0.0 0.000
22 23:00 54.0 51.7 92 Calm 29.83 1010.4 0.55 0 0.0 0.090
22 22:00 54.5 52.2 92 Calm 29.84 1010.5 0.55 0 0.0 0.090
22 21:00 55.3 53.0 92 Calm 29.82 1009.9 0.55 0 0.0 0.090
22 20:00 60.0 54.5 67.7 60.0 82 Calm 29.80 1009.1 0.03 0.55 25 0.0 0.090
22 19:00 62.5 55.6 78 WNW 0 G 2 29.79 1008.7 0.55 98 0.0 0.089
22 18:00 64.3 54.7 71 NW 2 G 7 29.77 1008.3 0.55 137 0.0 0.086
22 17:00 64.0 57.0 78 WNW 0 G 6 29.76 1007.9 0.03 0.55 218 0.0 0.078
22 16:00 63.4 55.3 75 Calm 29.76 1007.7 0.55 220 0.0 0.071
22 15:00 65.4 58.4 78 SSW 0 G 2 29.76 1007.8 0.03 0.55 891 0.0 0.060
22 14:00 66.7 55.0 67.2 53.2 66 WNW 4 G 8 29.75 1007.6 0.06 0.44 0.52 454 0.0 0.049
22 13:00 62.4 56.8 82 S 1 G 9 29.76 1007.9 0.52 728 0.0 0.032
22 12:00 58.4 56.7 94 Calm 29.76 1008.0 0.06 0.52 371 0.0 0.017
22 11:00 53.4 52.0 95 Calm 29.76 1008.0 0.09 0.38 0.46 72 0.0 0.010
22 10:00 54.6 52.9 94 NW 1 G 8 29.75 1007.6 0.29 0.37 18 0.0 0.009
22 09:00 57.4 55.1 92 SSW 0 G 2 29.72 1006.4 0.08 49 0.0 0.008
22 08:00 58.1 55.5 58.1 48.3 91 Calm 29.71 1006.1 0.08 0.08 0.08 213 0.0 0.006
22 07:00 53.6 51.9 94 SSW 0 G 4 29.71 1006.0 0.04 0.08 114 0.0 0.002
22 06:00 53.3 50.1 89 SW 0 G 6 29.74 1007.3 0.04 0.04 7 0.0 0.001
22 05:00 52.7 47.4 82 S 1 G 4 29.72 1006.6 0.00 0 0.0 0.001
22 04:00 48.4 45.6 90 Calm 29.69 1005.5 0.00 0 0.0 0.001
22 03:00 48.9 46.1 90 Calm 29.70 1005.7 0.00 0 0.0 0.001
22 02:00 48.5 46.0 65.2 48.5 91 Calm 29.70 1005.9 0.00 0 0.0 0.001
22 01:00 52.1 47.4 84 Calm 29.72 1006.3 0.00 0 0.0 0.001
22 00:00 54.6 48.2 79 Calm 29.72 1006.3 0.08 0 0.0 0.000
21 23:00 55.7 49.0 78 Calm 29.72 1006.3 0.08 0 0.0 0.159
21 22:00 58.6 48.9 70 Calm 29.73 1006.8 0.08 0 0.0 0.158
21 21:00 59.1 49.7 71 Calm 29.71 1006.2 0.08 0 0.0 0.157
21 20:00 65.2 50.5 73.8 65.2 59 Calm 29.69 1005.4 0.08 18 0.0 0.157
21 19:00 68.7 48.8 49 W 2 G 9 29.68 1005.0 0.08 77 0.0 0.155
21 18:00 71.7 49.8 46 W 3 G 10 29.68 1005.2 0.08 390 0.0 0.149
21 17:00 71.9 51.7 49 WNW 1 G 16 29.68 1005.3 0.08 626 0.0 0.138
21 16:00 72.1 51.4 48 WSW 4 G 13 29.69 1005.5 0.08 918 0.0 0.122

Data generated by WxSolution Version 1.8.8.8, Build 2016.04.03.


 
 
Current Radar Loop:

Copyright © WestfordWeather.net 2007-2016. All rights reserved.